createdAt,value
2023-04-19T00:00:33.072Z,433.00
2023-04-19T00:01:33.074Z,436.00
2023-04-19T00:02:33.294Z,436.00
2023-04-19T00:03:33.302Z,435.00
2023-04-19T00:04:33.178Z,436.00
2023-04-19T00:05:33.076Z,435.00
2023-04-19T00:06:32.988Z,437.00
2023-04-19T00:07:33.006Z,436.00
2023-04-19T00:08:32.995Z,435.00
2023-04-19T00:09:33.024Z,439.00
2023-04-19T00:10:32.999Z,440.00
2023-04-19T00:11:32.933Z,441.00
2023-04-19T00:12:33.010Z,440.00
2023-04-19T00:13:32.990Z,439.00
2023-04-19T00:14:32.966Z,434.00
2023-04-19T00:15:33.052Z,434.00
2023-04-19T00:16:32.956Z,435.00
2023-04-19T00:17:32.956Z,436.00
2023-04-19T00:18:32.951Z,438.00
2023-04-19T00:19:32.968Z,439.00
2023-04-19T00:20:32.964Z,439.00
2023-04-19T00:21:32.912Z,439.00
2023-04-19T00:22:32.974Z,438.00
2023-04-19T00:23:32.871Z,439.00
2023-04-19T00:24:32.894Z,439.00
2023-04-19T00:25:32.894Z,439.00
2023-04-19T00:26:32.911Z,439.00
2023-04-19T00:27:32.896Z,437.00
2023-04-19T00:28:32.846Z,435.00
2023-04-19T00:29:32.870Z,436.00
2023-04-19T00:30:32.862Z,436.00
2023-04-19T00:31:32.827Z,434.00
2023-04-19T00:32:32.894Z,430.00
2023-04-19T00:33:32.838Z,432.00
2023-04-19T00:34:32.841Z,436.00
2023-04-19T00:35:32.811Z,438.00
2023-04-19T00:36:32.858Z,441.00
2023-04-19T00:37:32.788Z,441.00
2023-04-19T00:38:32.779Z,440.00
2023-04-19T00:39:32.822Z,439.00
2023-04-19T00:40:32.798Z,439.00
2023-04-19T00:41:32.805Z,438.00
2023-04-19T00:42:32.844Z,437.00
2023-04-19T00:43:32.840Z,437.00
2023-04-19T00:44:32.919Z,440.00
2023-04-19T00:45:32.969Z,442.00
2023-04-19T00:46:33.192Z,444.00
2023-04-19T00:47:33.103Z,445.00
2023-04-19T00:48:33.052Z,445.00
2023-04-19T00:49:33.126Z,443.00
2023-04-19T00:50:33.148Z,444.00
2023-04-19T00:51:33.261Z,444.00
2023-04-19T00:52:33.256Z,444.00
2023-04-19T00:53:33.262Z,444.00
2023-04-19T00:54:33.298Z,443.00
2023-04-19T00:55:33.333Z,443.00
2023-04-19T00:56:33.420Z,442.00
2023-04-19T00:57:33.426Z,440.00
2023-04-19T00:58:33.472Z,441.00
2023-04-19T00:59:33.662Z,443.00
2023-04-19T01:00:33.532Z,440.00
2023-04-19T01:01:33.597Z,439.00
2023-04-19T01:02:33.723Z,441.00
2023-04-19T01:03:33.840Z,440.00
2023-04-19T01:04:33.861Z,441.00
2023-04-19T01:05:33.795Z,441.00
2023-04-19T01:06:33.793Z,442.00
2023-04-19T01:07:33.836Z,440.00
2023-04-19T01:08:33.848Z,441.00
2023-04-19T01:09:33.908Z,441.00
2023-04-19T01:10:33.962Z,441.00
2023-04-19T01:11:33.968Z,441.00
2023-04-19T01:12:34.044Z,440.00
2023-04-19T01:13:34.086Z,441.00
2023-04-19T01:14:34.158Z,442.00
2023-04-19T01:15:34.202Z,442.00
2023-04-19T01:16:34.266Z,443.00
2023-04-19T01:17:34.332Z,441.00
2023-04-19T01:18:34.263Z,441.00
2023-04-19T01:19:34.329Z,439.00
2023-04-19T01:20:34.390Z,439.00
2023-04-19T01:21:34.439Z,443.00
2023-04-19T01:22:34.516Z,440.00
2023-04-19T01:23:34.454Z,443.00
2023-04-19T01:24:34.565Z,443.00
2023-04-19T01:25:34.556Z,442.00
2023-04-19T01:26:34.642Z,443.00
2023-04-19T01:27:34.679Z,442.00
2023-04-19T01:28:34.689Z,442.00
2023-04-19T01:29:34.760Z,441.00
2023-04-19T01:30:34.759Z,441.00
2023-04-19T01:31:34.874Z,439.00
2023-04-19T01:32:34.977Z,437.00
2023-04-19T01:33:34.977Z,436.00
2023-04-19T01:34:34.938Z,434.00
2023-04-19T01:35:35.001Z,433.00
2023-04-19T01:36:35.073Z,434.00
2023-04-19T01:37:35.360Z,434.00
2023-04-19T01:38:35.121Z,434.00
2023-04-19T01:39:54.345Z,441.00
2023-04-19T01:40:54.237Z,442.00
2023-04-19T01:41:54.176Z,439.00
2023-04-19T01:42:54.197Z,433.00
2023-04-19T01:43:54.214Z,432.00
2023-04-19T01:44:54.269Z,433.00
2023-04-19T01:45:54.140Z,433.00
2023-04-19T01:46:54.257Z,435.00
2023-04-19T01:47:54.205Z,433.00
2023-04-19T01:48:54.134Z,432.00
2023-04-19T01:49:54.146Z,430.00
2023-04-19T01:50:54.116Z,432.00
2023-04-19T01:51:54.157Z,430.00
2023-04-19T01:52:54.082Z,433.00
2023-04-19T01:53:54.110Z,435.00
2023-04-19T01:54:54.107Z,437.00
2023-04-19T01:55:54.074Z,438.00
2023-04-19T01:56:54.110Z,439.00
2023-04-19T01:57:54.756Z,439.00
2023-04-19T01:58:54.102Z,437.00
2023-04-19T01:59:54.102Z,438.00
2023-04-19T02:00:54.061Z,436.00
2023-04-19T02:01:54.088Z,437.00
2023-04-19T02:02:54.172Z,437.00
2023-04-19T02:03:54.175Z,438.00
2023-04-19T02:04:54.049Z,436.00
2023-04-19T02:05:54.036Z,436.00
2023-04-19T02:06:53.988Z,436.00
2023-04-19T02:07:53.982Z,437.00
2023-04-19T02:08:54.008Z,436.00
2023-04-19T02:09:54.412Z,436.00
2023-04-19T02:10:53.981Z,436.00
2023-04-19T02:11:54.141Z,434.00
2023-04-19T02:12:54.005Z,436.00
2023-04-19T02:13:54.004Z,435.00
2023-04-19T02:14:53.948Z,435.00
2023-04-19T02:15:53.946Z,435.00
2023-04-19T02:16:53.924Z,436.00
2023-04-19T02:17:53.993Z,440.00
2023-04-19T02:18:54.085Z,440.00
2023-04-19T02:19:54.086Z,440.00
2023-04-19T02:20:54.151Z,439.00
2023-04-19T02:21:54.228Z,437.00
2023-04-19T02:22:54.203Z,435.00
2023-04-19T02:23:54.217Z,434.00
2023-04-19T02:24:54.300Z,433.00
2023-04-19T02:25:54.382Z,434.00
2023-04-19T02:26:54.392Z,432.00
2023-04-19T02:27:54.427Z,432.00
2023-04-19T02:28:54.510Z,432.00
2023-04-19T02:29:54.513Z,434.00
2023-04-19T02:30:54.631Z,437.00
2023-04-19T02:31:54.634Z,437.00
2023-04-19T02:32:54.731Z,438.00
2023-04-19T02:33:54.740Z,437.00
2023-04-19T02:34:54.779Z,435.00
2023-04-19T02:35:54.870Z,437.00
2023-04-19T02:36:54.900Z,435.00
2023-04-19T02:37:54.919Z,434.00
2023-04-19T02:38:54.979Z,436.00
2023-04-19T02:39:55.030Z,438.00
2023-04-19T02:40:55.098Z,437.00
2023-04-19T02:41:55.123Z,438.00
2023-04-19T02:42:55.152Z,440.00
2023-04-19T02:43:55.238Z,440.00
2023-04-19T02:44:55.233Z,441.00
2023-04-19T02:45:55.331Z,443.00
2023-04-19T02:46:55.346Z,442.00
2023-04-19T02:47:55.475Z,441.00
2023-04-19T02:48:55.417Z,440.00
2023-04-19T02:49:55.473Z,441.00
2023-04-19T02:50:55.494Z,441.00
2023-04-19T02:51:55.526Z,438.00
2023-04-19T02:52:55.594Z,437.00
2023-04-19T02:53:55.635Z,435.00
2023-04-19T02:54:55.729Z,434.00
2023-04-19T02:55:55.726Z,436.00
2023-04-19T02:56:55.827Z,436.00
2023-04-19T02:57:55.842Z,436.00
2023-04-19T02:58:55.850Z,438.00
2023-04-19T02:59:55.901Z,438.00
2023-04-19T03:00:55.997Z,437.00
2023-04-19T03:01:56.040Z,436.00
2023-04-19T03:02:56.126Z,436.00
2023-04-19T03:03:56.165Z,438.00
2023-04-19T03:04:56.092Z,437.00
2023-04-19T03:05:56.238Z,434.00
2023-04-19T03:06:56.202Z,436.00
2023-04-19T03:07:56.206Z,434.00
2023-04-19T03:08:56.246Z,434.00
2023-04-19T03:09:56.259Z,434.00
2023-04-19T03:10:56.328Z,434.00
2023-04-19T03:11:56.352Z,434.00
2023-04-19T03:12:56.446Z,437.00
2023-04-19T03:13:56.463Z,436.00
2023-04-19T03:14:56.565Z,436.00
2023-04-19T03:15:56.601Z,435.00
2023-04-19T03:16:56.595Z,433.00
2023-04-19T03:17:56.727Z,432.00
2023-04-19T03:18:56.720Z,432.00
2023-04-19T03:19:56.813Z,432.00
2023-04-19T03:20:56.791Z,432.00
2023-04-19T03:21:56.837Z,430.00
2023-04-19T03:22:56.926Z,428.00
2023-04-19T03:23:56.971Z,429.00
2023-04-19T03:24:57.037Z,427.00
2023-04-19T03:25:57.089Z,428.00
2023-04-19T03:26:57.083Z,429.00
2023-04-19T03:27:57.145Z,427.00
2023-04-19T03:28:57.199Z,427.00
2023-04-19T03:29:57.297Z,427.00
2023-04-19T03:30:57.308Z,426.00
2023-04-19T03:31:57.303Z,425.00
2023-04-19T03:32:57.481Z,423.00
2023-04-19T03:33:57.428Z,426.00
2023-04-19T03:34:57.444Z,425.00
2023-04-19T03:35:57.574Z,425.00
2023-04-19T03:36:57.572Z,426.00
2023-04-19T03:37:57.622Z,426.00
2023-04-19T03:38:57.685Z,428.00
2023-04-19T03:39:57.752Z,429.00
2023-04-19T03:40:57.785Z,431.00
2023-04-19T03:41:57.782Z,431.00
2023-04-19T03:42:57.873Z,430.00
2023-04-19T03:43:57.916Z,428.00
2023-04-19T03:44:57.981Z,428.00
2023-04-19T03:45:58.021Z,428.00
2023-04-19T03:46:58.089Z,427.00
2023-04-19T03:47:58.824Z,429.00
2023-04-19T03:48:58.156Z,429.00
2023-04-19T03:49:58.238Z,429.00
2023-04-19T03:50:58.269Z,430.00
2023-04-19T03:51:58.322Z,428.00
2023-04-19T03:52:58.359Z,426.00
2023-04-19T03:53:58.471Z,426.00
2023-04-19T03:54:58.471Z,426.00
2023-04-19T03:55:58.512Z,426.00
2023-04-19T03:56:58.594Z,427.00
2023-04-19T03:57:58.598Z,429.00
2023-04-19T03:58:58.679Z,427.00
2023-04-19T03:59:58.697Z,427.00
2023-04-19T04:00:58.741Z,423.00
2023-04-19T04:01:58.824Z,422.00
2023-04-19T04:02:58.931Z,424.00
2023-04-19T04:04:00.114Z,424.00
2023-04-19T04:04:59.096Z,423.00
2023-04-19T04:05:58.882Z,423.00
2023-04-19T04:06:58.850Z,424.00
2023-04-19T04:07:58.852Z,426.00
2023-04-19T04:08:58.851Z,428.00
2023-04-19T04:09:58.833Z,428.00
2023-04-19T04:10:58.791Z,427.00
2023-04-19T04:11:58.833Z,427.00
2023-04-19T04:12:58.814Z,429.00
2023-04-19T04:13:58.819Z,431.00
2023-04-19T04:14:58.799Z,431.00
2023-04-19T04:15:58.846Z,432.00
2023-04-19T04:16:58.820Z,433.00
2023-04-19T04:17:58.790Z,434.00
2023-04-19T04:18:58.763Z,434.00
2023-04-19T04:19:58.765Z,434.00
2023-04-19T04:20:58.835Z,434.00
2023-04-19T04:21:58.750Z,435.00
2023-04-19T04:22:58.747Z,432.00
2023-04-19T04:23:58.748Z,434.00
2023-04-19T04:24:58.762Z,435.00
2023-04-19T04:25:58.704Z,435.00
2023-04-19T04:26:58.727Z,435.00
2023-04-19T04:27:58.787Z,433.00
2023-04-19T04:28:58.707Z,435.00
2023-04-19T04:29:58.656Z,435.00
2023-04-19T04:30:58.708Z,436.00
2023-04-19T04:31:58.770Z,436.00
2023-04-19T04:32:58.689Z,437.00
2023-04-19T04:33:58.692Z,437.00
2023-04-19T04:34:58.686Z,437.00
2023-04-19T04:35:58.644Z,437.00
2023-04-19T04:36:58.660Z,436.00
2023-04-19T04:37:58.661Z,437.00
2023-04-19T04:38:58.658Z,437.00
2023-04-19T04:39:58.618Z,436.00
2023-04-19T04:40:58.635Z,436.00
2023-04-19T04:41:58.633Z,441.00
2023-04-19T04:42:58.585Z,440.00
2023-04-19T04:44:11.351Z,439.00
2023-04-19T04:44:59.639Z,439.00
2023-04-19T04:45:58.658Z,436.00
2023-04-19T04:46:58.624Z,436.00
2023-04-19T04:47:58.578Z,438.00
2023-04-19T04:48:58.576Z,439.00
2023-04-19T04:49:58.584Z,436.00
2023-04-19T04:50:58.598Z,434.00
2023-04-19T04:51:58.561Z,432.00
2023-04-19T04:52:58.562Z,430.00
2023-04-19T04:53:58.578Z,428.00
2023-04-19T04:54:58.589Z,426.00
2023-04-19T04:55:58.691Z,428.00
2023-04-19T04:56:58.744Z,427.00
2023-04-19T04:57:58.766Z,425.00
2023-04-19T04:58:58.789Z,422.00
2023-04-19T04:59:58.860Z,425.00
2023-04-19T05:00:58.969Z,425.00
2023-04-19T05:01:59.006Z,426.00
2023-04-19T05:02:59.093Z,427.00
2023-04-19T05:03:59.097Z,428.00
2023-04-19T05:04:59.105Z,426.00
2023-04-19T05:05:59.173Z,426.00
2023-04-19T05:06:59.174Z,427.00
2023-04-19T05:07:59.353Z,427.00
2023-04-19T05:08:59.294Z,426.00
2023-04-19T05:09:59.330Z,425.00
2023-04-19T05:10:59.345Z,426.00
2023-04-19T05:11:59.432Z,423.00
2023-04-19T05:12:59.520Z,423.00
2023-04-19T05:13:59.588Z,422.00
2023-04-19T05:14:59.634Z,421.00
2023-04-19T05:15:59.704Z,421.00
2023-04-19T05:16:59.798Z,420.00
2023-04-19T05:17:59.796Z,415.00
2023-04-19T05:18:59.814Z,414.00
2023-04-19T05:19:59.866Z,415.00
2023-04-19T05:20:59.939Z,415.00
2023-04-19T05:22:00.016Z,417.00
2023-04-19T05:23:00.022Z,417.00
2023-04-19T05:24:00.172Z,418.00
2023-04-19T05:25:00.125Z,419.00
2023-04-19T05:26:00.215Z,422.00
2023-04-19T05:27:00.378Z,423.00
2023-04-19T05:28:00.374Z,423.00
2023-04-19T05:29:00.492Z,423.00
2023-04-19T05:30:00.412Z,422.00
2023-04-19T05:31:00.598Z,422.00
2023-04-19T05:32:00.522Z,422.00
2023-04-19T05:33:00.650Z,423.00
2023-04-19T05:34:00.630Z,429.00
2023-04-19T05:35:00.696Z,432.00
2023-04-19T05:36:00.733Z,439.00
2023-04-19T05:37:00.783Z,489.00
2023-04-19T05:38:00.801Z,507.00
2023-04-19T05:39:00.916Z,594.00
2023-04-19T05:40:01.010Z,600.00
2023-04-19T05:41:01.929Z,597.00
2023-04-19T05:42:00.967Z,594.00
2023-04-19T05:43:01.062Z,593.00
2023-04-19T05:44:01.179Z,599.00
2023-04-19T05:45:02.897Z,611.00
2023-04-19T05:46:01.131Z,635.00
2023-04-19T05:47:01.088Z,721.00
2023-04-19T05:48:01.583Z,692.00
2023-04-19T05:49:01.054Z,681.00
2023-04-19T05:50:01.079Z,661.00
2023-04-19T05:51:01.069Z,647.00
2023-04-19T05:52:01.068Z,659.00
2023-04-19T05:53:01.386Z,657.00
2023-04-19T05:54:04.046Z,671.00
2023-04-19T05:55:00.970Z,687.00
2023-04-19T05:56:01.010Z,703.00
2023-04-19T05:57:01.002Z,769.00
2023-04-19T05:58:00.979Z,751.00
2023-04-19T05:59:00.945Z,750.00
2023-04-19T06:01:01.023Z,781.00
2023-04-19T06:02:01.225Z,808.00
2023-04-19T06:03:01.047Z,846.00
2023-04-19T06:04:01.198Z,864.00
2023-04-19T06:05:04.891Z,875.00
2023-04-19T06:06:02.010Z,894.00
2023-04-19T06:07:00.937Z,908.00
2023-04-19T06:08:02.845Z,924.00
2023-04-19T06:09:01.024Z,943.00
2023-04-19T06:10:00.940Z,976.00
2023-04-19T06:11:05.204Z,982.00
2023-04-19T06:12:01.911Z,988.00
2023-04-19T06:13:00.884Z,997.00
2023-04-19T06:14:00.869Z,1003.00
2023-04-19T06:15:01.075Z,1007.00
2023-04-19T06:16:00.887Z,1014.00
2023-04-19T06:17:00.920Z,1023.00
2023-04-19T06:18:00.857Z,1027.00
2023-04-19T06:19:00.835Z,1029.00
2023-04-19T06:20:00.860Z,1035.00
2023-04-19T06:21:00.827Z,1040.00
2023-04-19T06:22:00.802Z,1042.00
2023-04-19T06:23:00.822Z,1046.00
2023-04-19T06:24:01.049Z,1058.00
2023-04-19T06:25:01.456Z,1076.00
2023-04-19T06:26:00.774Z,1096.00
2023-04-19T06:27:00.782Z,1096.00
2023-04-19T06:28:00.800Z,1099.00
2023-04-19T06:29:00.755Z,1103.00
2023-04-19T06:30:01.701Z,1106.00
2023-04-19T06:31:00.765Z,1107.00
2023-04-19T06:32:00.739Z,1115.00
2023-04-19T06:33:00.764Z,1125.00
2023-04-19T06:34:00.804Z,1151.00
2023-04-19T06:35:01.048Z,1165.00
2023-04-19T06:36:00.649Z,1070.00
2023-04-19T06:37:00.812Z,979.00
2023-04-19T06:38:00.695Z,899.00
2023-04-19T06:39:00.713Z,884.00
2023-04-19T06:40:01.111Z,880.00
2023-04-19T06:41:00.675Z,938.00
2023-04-19T06:42:00.735Z,918.00
2023-04-19T06:43:00.787Z,951.00
2023-04-19T06:44:01.200Z,948.00
2023-04-19T06:45:00.915Z,977.00
2023-04-19T06:46:00.944Z,1034.00
2023-04-19T06:47:00.979Z,1053.00
2023-04-19T06:48:00.990Z,1085.00
2023-04-19T06:49:01.094Z,1005.00
2023-04-19T06:50:00.944Z,895.00
2023-04-19T06:51:00.977Z,955.00
2023-04-19T06:52:01.000Z,896.00
2023-04-19T06:53:02.240Z,895.00
2023-04-19T06:54:01.072Z,903.00
2023-04-19T06:55:01.091Z,898.00
2023-04-19T06:56:01.251Z,873.00
2023-04-19T06:57:01.150Z,850.00
2023-04-19T06:58:01.187Z,837.00
2023-04-19T06:59:01.348Z,850.00
2023-04-19T07:00:01.333Z,830.00
2023-04-19T07:01:01.340Z,767.00
2023-04-19T07:02:01.404Z,757.00
2023-04-19T07:03:01.529Z,744.00
2023-04-19T07:04:01.810Z,736.00
2023-04-19T07:05:01.511Z,727.00
2023-04-19T07:06:01.580Z,722.00
2023-04-19T07:07:01.601Z,720.00
2023-04-19T07:08:01.593Z,721.00
2023-04-19T07:09:02.044Z,717.00
2023-04-19T07:10:01.643Z,760.00
2023-04-19T07:11:01.752Z,783.00
2023-04-19T07:12:01.702Z,793.00
2023-04-19T07:13:01.768Z,839.00
2023-04-19T07:14:01.805Z,867.00
2023-04-19T07:15:01.801Z,929.00
2023-04-19T07:16:01.843Z,950.00
2023-04-19T07:17:01.797Z,966.00
2023-04-19T07:18:01.885Z,978.00
2023-04-19T07:19:01.802Z,978.00
2023-04-19T07:20:01.813Z,879.00
2023-04-19T07:21:02.157Z,886.00
2023-04-19T07:22:02.171Z,889.00
2023-04-19T07:23:02.028Z,905.00
2023-04-19T07:24:01.949Z,833.00
2023-04-19T07:25:01.890Z,824.00
2023-04-19T07:26:02.056Z,820.00
2023-04-19T07:27:01.992Z,807.00
2023-04-19T07:28:01.986Z,790.00
2023-04-19T07:29:01.984Z,770.00
2023-04-19T07:30:02.040Z,733.00
2023-04-19T07:31:02.051Z,838.00
2023-04-19T07:32:02.164Z,847.00
2023-04-19T07:33:02.160Z,839.00
2023-04-19T07:34:02.149Z,841.00
2023-04-19T07:35:02.233Z,856.00
2023-04-19T07:36:02.169Z,962.00
2023-04-19T07:37:02.216Z,955.00
2023-04-19T07:38:02.242Z,959.00
2023-04-19T07:39:02.296Z,967.00
2023-04-19T07:40:02.291Z,985.00
2023-04-19T07:41:02.308Z,1016.00
2023-04-19T07:42:02.398Z,1062.00
2023-04-19T07:43:02.274Z,1073.00
2023-04-19T07:44:02.265Z,1091.00
2023-04-19T07:45:02.225Z,1115.00
2023-04-19T07:46:02.470Z,1132.00
2023-04-19T07:47:02.403Z,1148.00
2023-04-19T07:48:02.600Z,1162.00
2023-04-19T07:49:02.528Z,1187.00
2023-04-19T07:50:02.885Z,1202.00
2023-04-19T07:51:02.651Z,1213.00
2023-04-19T07:52:02.704Z,1223.00
2023-04-19T07:53:02.771Z,1238.00
2023-04-19T07:54:02.789Z,1256.00
2023-04-19T07:55:02.815Z,1267.00
2023-04-19T07:56:02.873Z,1278.00
2023-04-19T07:57:02.877Z,1297.00
2023-04-19T07:58:02.916Z,1311.00
2023-04-19T07:59:08.148Z,1329.00
2023-04-19T08:00:03.961Z,1341.00
2023-04-19T08:01:02.968Z,1361.00
2023-04-19T08:02:03.012Z,1378.00
2023-04-19T08:03:05.238Z,1387.00
2023-04-19T08:04:03.529Z,1391.00
2023-04-19T08:05:02.958Z,1400.00
2023-04-19T08:06:02.872Z,1414.00
2023-04-19T08:07:02.886Z,1425.00
2023-04-19T08:08:02.895Z,1454.00
2023-04-19T08:09:02.873Z,1470.00
2023-04-19T08:10:02.970Z,1481.00
2023-04-19T08:11:02.909Z,1500.00
2023-04-19T08:12:02.841Z,1517.00
2023-04-19T08:13:06.183Z,1526.00
2023-04-19T08:14:11.955Z,1528.00
2023-04-19T08:15:14.797Z,1545.00
2023-04-19T08:16:32.299Z,1571.00
2023-04-19T08:17:19.407Z,1578.00
2023-04-19T08:18:03.908Z,1594.00
2023-04-19T08:19:02.812Z,1607.00
2023-04-19T08:20:02.842Z,1629.00
2023-04-19T08:21:02.773Z,1641.00
2023-04-19T08:22:02.789Z,1652.00
2023-04-19T08:23:13.893Z,1661.00
2023-04-19T08:24:03.807Z,1676.00
2023-04-19T08:25:02.762Z,1687.00
2023-04-19T08:26:02.775Z,1700.00
2023-04-19T08:27:02.791Z,1714.00
2023-04-19T08:28:02.824Z,1512.00
2023-04-19T08:29:02.739Z,1265.00
2023-04-19T08:30:02.742Z,1099.00
2023-04-19T08:31:02.737Z,976.00
2023-04-19T08:32:02.730Z,883.00
2023-04-19T08:33:02.769Z,834.00
2023-04-19T08:34:02.734Z,771.00
2023-04-19T08:35:02.716Z,671.00
2023-04-19T08:36:02.753Z,630.00
2023-04-19T08:37:04.555Z,577.00
2023-04-19T08:38:03.329Z,544.00
2023-04-19T08:39:06.944Z,529.00
2023-04-19T08:40:03.693Z,523.00
2023-04-19T08:41:02.722Z,521.00
2023-04-19T08:42:08.592Z,600.00
2023-04-19T08:43:03.643Z,620.00
2023-04-19T08:44:02.604Z,705.00
2023-04-19T08:45:26.244Z,691.00
2023-04-19T08:46:03.779Z,694.00
2023-04-19T08:47:02.556Z,717.00
2023-04-19T08:48:02.907Z,724.00
2023-04-19T08:49:02.631Z,735.00
2023-04-19T08:51:05.346Z,802.00
2023-04-19T08:52:02.571Z,825.00
2023-04-19T08:53:12.306Z,838.00
2023-04-19T08:54:03.605Z,866.00
2023-04-19T08:55:02.567Z,895.00
2023-04-19T08:56:10.738Z,917.00
2023-04-19T08:57:03.590Z,930.00
2023-04-19T08:58:04.040Z,947.00
2023-04-19T08:59:15.817Z,969.00
2023-04-19T09:00:03.631Z,993.00
2023-04-19T09:01:02.526Z,1005.00
2023-04-19T09:02:02.599Z,1025.00
2023-04-19T09:03:02.729Z,1042.00
2023-04-19T09:04:16.143Z,1050.00
2023-04-19T09:05:03.609Z,1058.00
2023-04-19T09:06:02.572Z,1069.00
2023-04-19T09:07:02.442Z,1079.00
2023-04-19T09:08:02.438Z,1097.00
2023-04-19T09:09:02.471Z,1107.00
2023-04-19T09:10:03.753Z,1120.00
2023-04-19T09:11:02.468Z,1134.00
2023-04-19T09:12:02.529Z,1155.00
2023-04-19T09:13:02.440Z,1170.00
2023-04-19T09:14:02.429Z,1191.00
2023-04-19T09:15:02.842Z,1205.00
2023-04-19T09:16:02.521Z,1213.00
2023-04-19T09:17:02.429Z,1217.00
2023-04-19T09:18:02.444Z,1220.00
2023-04-19T09:19:22.446Z,1225.00
2023-04-19T09:20:03.377Z,1225.00
2023-04-19T09:21:02.398Z,1254.00
2023-04-19T09:22:02.473Z,1276.00
2023-04-19T09:23:02.356Z,1263.00
2023-04-19T09:24:03.633Z,1250.00
2023-04-19T09:25:34.369Z,1243.00
2023-04-19T09:27:02.311Z,1240.00
2023-04-19T09:28:02.320Z,1231.00
2023-04-19T09:29:02.649Z,1230.00
2023-04-19T09:30:02.396Z,1224.00
2023-04-19T09:31:10.903Z,1224.00
2023-04-19T09:32:03.538Z,1230.00
2023-04-19T09:33:02.519Z,1243.00
2023-04-19T09:34:02.311Z,1239.00
2023-04-19T09:35:02.260Z,1209.00
2023-04-19T09:36:02.331Z,1109.00
2023-04-19T09:37:12.142Z,968.00
2023-04-19T09:38:06.084Z,921.00
2023-04-19T09:39:02.265Z,897.00
2023-04-19T09:40:02.263Z,884.00
2023-04-19T09:41:02.232Z,874.00
2023-04-19T09:42:02.279Z,872.00
2023-04-19T09:43:13.022Z,1012.00
2023-04-19T09:45:28.504Z,1043.00
2023-04-19T09:46:03.462Z,1046.00
2023-04-19T09:47:02.410Z,1047.00
2023-04-19T09:48:02.410Z,1058.00
2023-04-19T09:49:09.330Z,1070.00
2023-04-19T09:50:11.787Z,1076.00
2023-04-19T09:51:07.457Z,1079.00
2023-04-19T09:52:03.302Z,1082.00
2023-04-19T09:53:02.281Z,1086.00
2023-04-19T09:54:02.270Z,1093.00
2023-04-19T09:55:06.581Z,1103.00
2023-04-19T09:56:04.142Z,1114.00
2023-04-19T09:57:02.302Z,1134.00
2023-04-19T09:58:02.280Z,1145.00
2023-04-19T09:59:16.513Z,1153.00
2023-04-19T10:00:03.245Z,1165.00
2023-04-19T10:01:13.256Z,1179.00
2023-04-19T10:02:03.303Z,1193.00
2023-04-19T10:03:02.280Z,1205.00
2023-04-19T10:04:14.871Z,1218.00
2023-04-19T10:05:19.919Z,1232.00
2023-04-19T10:06:10.759Z,1243.00
2023-04-19T10:08:02.265Z,1259.00
2023-04-19T10:09:02.173Z,1273.00
2023-04-19T10:10:16.173Z,1285.00
2023-04-19T10:11:03.156Z,1302.00
2023-04-19T10:12:11.351Z,1313.00
2023-04-19T10:14:02.173Z,1331.00
2023-04-19T10:15:02.118Z,1337.00
2023-04-19T10:17:02.202Z,1353.00
2023-04-19T10:18:02.207Z,1356.00
2023-04-19T10:19:02.111Z,1366.00
2023-04-19T10:20:02.224Z,1388.00
2023-04-19T10:21:02.079Z,1404.00
2023-04-19T10:22:02.097Z,1410.00
2023-04-19T10:23:02.167Z,1422.00
2023-04-19T10:24:02.032Z,1435.00
2023-04-19T10:25:02.200Z,1442.00
2023-04-19T10:26:02.211Z,1450.00
2023-04-19T10:27:02.691Z,1457.00
2023-04-19T10:28:02.238Z,1465.00
2023-04-19T10:29:02.015Z,1464.00
2023-04-19T10:30:02.175Z,1493.00
2023-04-19T10:31:02.102Z,1490.00
2023-04-19T10:32:02.696Z,1483.00
2023-04-19T10:33:02.044Z,1507.00
2023-04-19T10:34:03.910Z,1519.00
2023-04-19T10:35:01.958Z,1538.00
2023-04-19T10:36:02.127Z,1546.00
2023-04-19T10:37:01.970Z,1571.00
2023-04-19T10:38:01.977Z,1597.00
2023-04-19T10:39:01.962Z,1608.00
2023-04-19T10:40:01.940Z,1619.00
2023-04-19T10:41:01.952Z,1634.00
2023-04-19T10:42:02.025Z,1647.00
2023-04-19T10:43:01.996Z,1658.00
2023-04-19T10:44:02.152Z,1668.00
2023-04-19T10:45:02.132Z,1678.00
2023-04-19T10:46:02.254Z,1694.00
2023-04-19T10:47:02.265Z,1706.00
2023-04-19T10:48:02.264Z,1724.00
2023-04-19T10:49:02.318Z,1732.00
2023-04-19T10:50:02.536Z,1745.00
2023-04-19T10:51:02.376Z,1752.00
2023-04-19T10:52:02.514Z,1764.00
2023-04-19T10:53:02.545Z,1777.00
2023-04-19T10:54:02.493Z,1798.00
2023-04-19T10:55:02.525Z,1811.00
2023-04-19T10:56:02.601Z,1816.00
2023-04-19T10:57:02.679Z,1828.00
2023-04-19T10:58:02.650Z,1842.00
2023-04-19T10:59:02.746Z,1851.00
2023-04-19T11:00:02.744Z,1862.00
2023-04-19T11:01:02.795Z,1873.00
2023-04-19T11:02:02.869Z,1891.00
2023-04-19T11:03:02.999Z,1915.00
2023-04-19T11:04:03.125Z,1918.00
2023-04-19T11:05:02.885Z,1924.00
2023-04-19T11:06:02.881Z,1928.00
2023-04-19T11:07:02.955Z,1953.00
2023-04-19T11:08:02.993Z,1967.00
2023-04-19T11:09:03.007Z,1971.00
2023-04-19T11:10:03.141Z,1979.00
2023-04-19T11:11:03.103Z,1988.00
2023-04-19T11:12:03.118Z,1996.00
2023-04-19T11:13:03.241Z,2000.00
2023-04-19T11:14:03.197Z,2012.00
2023-04-19T11:15:03.242Z,2022.00
2023-04-19T11:16:03.294Z,2029.00
2023-04-19T11:17:04.321Z,2137.00
2023-04-19T11:18:12.362Z,2198.00
2023-04-19T11:19:04.360Z,2195.00
2023-04-19T11:20:03.375Z,2172.00
2023-04-19T11:21:03.297Z,2152.00
2023-04-19T11:22:03.306Z,2130.00
2023-04-19T11:23:03.377Z,2104.00
2023-04-19T11:24:03.445Z,2069.00
2023-04-19T11:25:03.354Z,2065.00
2023-04-19T11:26:03.405Z,2064.00
2023-04-19T11:27:03.419Z,2058.00
2023-04-19T11:28:03.469Z,2055.00
2023-04-19T11:29:03.553Z,2045.00
2023-04-19T11:30:03.528Z,2034.00
2023-04-19T11:31:03.666Z,2035.00
2023-04-19T11:32:03.666Z,2031.00
2023-04-19T11:33:03.889Z,2028.00
2023-04-19T11:34:03.788Z,2035.00
2023-04-19T11:35:03.840Z,2035.00
2023-04-19T11:36:03.858Z,2027.00
2023-04-19T11:37:03.920Z,2022.00
2023-04-19T11:38:04.185Z,2018.00
2023-04-19T11:39:03.987Z,2012.00
2023-04-19T11:40:04.985Z,2002.00
2023-04-19T11:41:04.099Z,1993.00
2023-04-19T11:42:04.194Z,1986.00
2023-04-19T11:43:04.244Z,1979.00
2023-04-19T11:44:04.287Z,1977.00
2023-04-19T11:45:05.190Z,1966.00
2023-04-19T11:46:04.430Z,1964.00
2023-04-19T11:47:04.596Z,1958.00
2023-04-19T11:48:04.621Z,1951.00
2023-04-19T11:49:04.607Z,1938.00
2023-04-19T11:50:04.646Z,1932.00
2023-04-19T11:51:04.733Z,1930.00
2023-04-19T11:52:06.157Z,1927.00
2023-04-19T11:53:04.801Z,1923.00
2023-04-19T11:54:04.859Z,1914.00
2023-04-19T11:55:04.901Z,1907.00
2023-04-19T11:56:04.953Z,1904.00
2023-04-19T11:57:05.022Z,1899.00
2023-04-19T11:58:05.013Z,1895.00
2023-04-19T11:59:05.042Z,1886.00
2023-04-19T12:00:05.108Z,1876.00
2023-04-19T12:01:05.063Z,1872.00
2023-04-19T12:02:05.127Z,1869.00
2023-04-19T12:03:05.542Z,1865.00
2023-04-19T12:04:05.294Z,1858.00
2023-04-19T12:05:05.333Z,1844.00
2023-04-19T12:06:05.253Z,1834.00
2023-04-19T12:07:05.203Z,1822.00
2023-04-19T12:08:05.240Z,1811.00
2023-04-19T12:09:05.260Z,1805.00
2023-04-19T12:10:05.225Z,1804.00
2023-04-19T12:11:05.223Z,1802.00
2023-04-19T12:12:05.230Z,1805.00
2023-04-19T12:13:05.236Z,1801.00
2023-04-19T12:14:05.242Z,1791.00
2023-04-19T12:15:05.251Z,1781.00
2023-04-19T12:16:05.343Z,1786.00
2023-04-19T12:17:05.382Z,1783.00
2023-04-19T12:18:05.306Z,1778.00
2023-04-19T12:19:05.282Z,1770.00
2023-04-19T12:20:05.278Z,1762.00
2023-04-19T12:21:05.321Z,1756.00
2023-04-19T12:22:05.327Z,1751.00
2023-04-19T12:23:05.292Z,1749.00
2023-04-19T12:24:05.303Z,1746.00
2023-04-19T12:25:05.285Z,1739.00
2023-04-19T12:26:05.337Z,1731.00
2023-04-19T12:27:05.311Z,1728.00